Time;durP1;ratioP1;P1;durP2;ratioP2;P2;SDS_P1;SDS_P2;PMS_P1;PMS_P2;Temp;Humidity;BMP_temperature;BMP_pressure;BME280_temperature;BME280_humidity;BME280_pressure;Samples;Min_cycle;Max_cycle;Signal;HPM_P1;HPM_P2
2022/09/03 00:00:38;;;;;;;;;;;11.70;99.90;;;;;;5120833;27;20371;-54
2022/09/03 00:03:20;;;;;;;;;;;11.70;99.90;;;;;;5104239;27;19916;-54
2022/09/03 00:06:06;;;;;;;;;;;11.70;99.90;;;;;;5086248;27;20370;-54
2022/09/03 00:08:49;;;;;;;;;;;11.70;99.90;;;;;;5120885;27;19930;-54
2022/09/03 00:11:31;;;;;;;;;;;11.60;99.90;;;;;;5121480;27;19920;-55
2022/09/03 00:14:15;;;;;;;;;;;11.60;99.90;;;;;;5122544;27;19922;-54
2022/09/03 00:16:57;;;;;;;;;;;11.50;99.90;;;;;;5103402;27;19912;-54
2022/09/03 00:19:41;;;;;;;;;;;11.60;99.90;;;;;;5097720;27;19954;-54
2022/09/03 00:22:23;;;;;;;;;;;11.50;99.90;;;;;;5123926;27;19911;-54
2022/09/03 00:25:04;;;;;;;;;;;11.30;99.90;;;;;;5117308;27;20385;-54
2022/09/03 00:27:45;;;;;;;;;;;11.10;99.90;;;;;;5115222;27;19920;-54
2022/09/03 00:30:26;;;;;;;;;;;11.00;99.90;;;;;;5119334;27;19915;-54
2022/09/03 00:33:10;;;;;;;;;;;10.90;99.90;;;;;;5101884;27;19977;-54
2022/09/03 00:35:54;;;;;;;;;;;10.80;99.90;;;;;;5121897;27;19920;-55
2022/09/03 00:38:35;;;;;;;;;;;10.80;99.90;;;;;;5118504;27;20332;-54
2022/09/03 00:41:21;;;;;;;;;;;10.80;99.90;;;;;;5104461;27;20253;-54
2022/09/03 00:44:08;;;;;;;;;;;10.70;99.90;;;;;;5123868;27;19918;-54
2022/09/03 00:46:50;;;;;;;;;;;10.60;99.90;;;;;;5125477;27;20320;-54
2022/09/03 00:49:35;;;;;;;;;;;10.50;99.90;;;;;;5124770;27;19912;-54
2022/09/03 00:52:21;;;;;;;;;;;10.50;99.90;;;;;;5125577;27;19912;-54
2022/09/03 00:55:06;;;;;;;;;;;10.40;99.90;;;;;;5115483;27;19912;-54
2022/09/03 00:57:50;;;;;;;;;;;10.30;99.90;;;;;;5124987;27;19945;-54
2022/09/03 01:00:30;;;;;;;;;;;10.30;99.90;;;;;;5122037;27;20377;-55
2022/09/03 01:03:12;;;;;;;;;;;10.30;99.90;;;;;;5118896;27;19916;-54
2022/09/03 01:06:02;;;;;;;;;;;10.30;99.90;;;;;;5141313;27;19916;-54
2022/09/03 01:08:53;;;;;;;;;;;10.30;99.90;;;;;;5103334;27;19920;-54
2022/09/03 01:11:38;;;;;;;;;;;10.20;99.90;;;;;;5119955;27;19916;-54
2022/09/03 01:14:22;;;;;;;;;;;10.20;99.90;;;;;;5100254;27;19920;-54
2022/09/03 01:17:08;;;;;;;;;;;10.10;99.90;;;;;;5121432;27;19915;-54
2022/09/03 01:19:54;;;;;;;;;;;10.10;99.90;;;;;;5152685;27;19915;-54
2022/09/03 01:22:46;;;;;;;;;;;10.10;99.90;;;;;;5119868;27;20435;-54
2022/09/03 01:25:34;;;;;;;;;;;10.20;99.90;;;;;;5111637;27;20085;-54
2022/09/03 01:28:19;;;;;;;;;;;10.10;99.90;;;;;;5133740;27;19916;-54
2022/09/03 01:31:02;;;;;;;;;;;10.00;99.90;;;;;;5124425;27;19912;-53
2022/09/03 01:33:46;;;;;;;;;;;9.90;99.90;;;;;;5099589;27;20377;-54
2022/09/03 01:36:33;;;;;;;;;;;9.90;99.90;;;;;;5124447;27;19912;-55
2022/09/03 01:39:18;;;;;;;;;;;9.90;99.90;;;;;;5145133;27;20270;-54
2022/09/03 01:42:14;;;;;;;;;;;9.90;99.90;;;;;;5125869;27;19912;-54
2022/09/03 01:45:07;;;;;;;;;;;9.90;99.90;;;;;;5096502;27;19926;-54
2022/09/03 01:47:54;;;;;;;;;;;9.90;99.90;;;;;;5125509;27;19915;-54
2022/09/03 01:50:38;;;;;;;;;;;9.80;99.90;;;;;;5115019;27;20380;-55
2022/09/03 01:53:31;;;;;;;;;;;9.80;99.90;;;;;;5120518;27;19942;-54
2022/09/03 01:56:22;;;;;;;;;;;9.90;99.90;;;;;;5120341;27;19916;-54
2022/09/03 01:59:05;;;;;;;;;;;9.90;99.90;;;;;;5123527;27;19916;-54
2022/09/03 02:01:46;;;;;;;;;;;9.90;99.90;;;;;;5125011;27;19912;-54
2022/09/03 02:04:27;;;;;;;;;;;10.00;99.90;;;;;;5118410;27;19912;-54
2022/09/03 02:07:07;;;;;;;;;;;10.00;99.90;;;;;;5131985;22;19931;-57
2022/09/03 02:09:47;;;;;;;;;;;10.00;99.90;;;;;;5124256;27;19919;-56
2022/09/03 02:12:32;;;;;;;;;;;10.00;99.90;;;;;;5125229;27;19912;-57
2022/09/03 02:15:16;;;;;;;;;;;10.00;99.90;;;;;;5123572;27;20291;-56
2022/09/03 02:17:58;;;;;;;;;;;10.00;99.90;;;;;;5125068;27;19911;-56
2022/09/03 02:20:40;;;;;;;;;;;9.80;99.90;;;;;;5104954;27;20386;-55
2022/09/03 02:23:20;;;;;;;;;;;9.90;99.90;;;;;;5125288;27;19916;-56
2022/09/03 02:26:00;;;;;;;;;;;9.90;99.90;;;;;;5104586;27;19912;-56
2022/09/03 02:28:40;;;;;;;;;;;9.90;99.90;;;;;;5109795;27;19920;-57
2022/09/03 02:31:20;;;;;;;;;;;9.90;99.90;;;;;;5097816;27;19926;-57
2022/09/03 02:34:00;;;;;;;;;;;9.80;99.90;;;;;;5096820;27;20444;-56
2022/09/03 02:36:42;;;;;;;;;;;9.80;99.90;;;;;;5119101;27;19930;-56
2022/09/03 02:39:23;;;;;;;;;;;9.70;99.90;;;;;;5140046;27;19915;-56
2022/09/03 02:42:03;;;;;;;;;;;9.70;99.90;;;;;;5104077;27;19926;-56
2022/09/03 02:44:44;;;;;;;;;;;9.60;99.90;;;;;;5119321;27;19916;-56
2022/09/03 02:47:29;;;;;;;;;;;9.50;99.90;;;;;;5079281;28;20539;-56
2022/09/03 02:50:09;;;;;;;;;;;9.50;99.90;;;;;;5123149;27;19923;-56
2022/09/03 02:52:50;;;;;;;;;;;9.60;99.90;;;;;;5115347;27;20384;-56
2022/09/03 02:55:30;;;;;;;;;;;9.60;99.90;;;;;;5095578;27;20381;-57
2022/09/03 02:58:10;;;;;;;;;;;9.60;99.90;;;;;;5117742;27;20199;-56
2022/09/03 03:00:50;;;;;;;;;;;9.60;99.90;;;;;;5118842;27;20225;-56
2022/09/03 03:03:29;;;;;;;;;;;9.50;99.90;;;;;;5101831;27;19924;-56
2022/09/03 03:06:10;;;;;;;;;;;9.20;99.90;;;;;;5094399;27;20426;-56
2022/09/03 03:08:50;;;;;;;;;;;8.90;99.90;;;;;;5120559;27;20322;-56
2022/09/03 03:11:31;;;;;;;;;;;8.60;99.90;;;;;;5118459;27;19923;-57
2022/09/03 03:14:10;;;;;;;;;;;8.40;99.90;;;;;;5121673;27;19922;-56
2022/09/03 03:16:50;;;;;;;;;;;8.20;99.90;;;;;;5091416;27;19920;-56
2022/09/03 03:19:30;;;;;;;;;;;8.00;99.90;;;;;;5143897;27;19922;-56
2022/09/03 03:22:10;;;;;;;;;;;7.90;99.90;;;;;;5126149;27;19912;-57
2022/09/03 03:24:51;;;;;;;;;;;7.80;99.90;;;;;;5124904;27;19915;-56
2022/09/03 03:27:31;;;;;;;;;;;7.60;99.90;;;;;;5125278;27;20389;-56
2022/09/03 03:30:12;;;;;;;;;;;7.50;99.90;;;;;;5103824;27;19912;-56
2022/09/03 03:32:54;;;;;;;;;;;7.50;99.90;;;;;;5125596;27;19912;-56
2022/09/03 03:35:34;;;;;;;;;;;7.50;99.90;;;;;;5121495;27;19916;-56
2022/09/03 03:38:14;;;;;;;;;;;7.30;99.90;;;;;;5122859;27;20190;-56
2022/09/03 03:40:53;;;;;;;;;;;7.20;99.90;;;;;;5134795;27;19911;-56
2022/09/03 03:43:33;;;;;;;;;;;7.20;99.90;;;;;;5123933;27;20274;-56
2022/09/03 03:46:13;;;;;;;;;;;7.20;99.90;;;;;;5095093;27;20423;-56
2022/09/03 03:48:53;;;;;;;;;;;7.20;99.90;;;;;;5124187;27;19911;-56
2022/09/03 03:51:35;;;;;;;;;;;7.30;99.90;;;;;;5122161;27;19916;-56
2022/09/03 03:54:16;;;;;;;;;;;7.40;99.90;;;;;;5124781;27;19929;-56
2022/09/03 03:56:56;;;;;;;;;;;7.40;99.90;;;;;;5124735;27;19922;-56
2022/09/03 03:59:35;;;;;;;;;;;7.40;99.90;;;;;;5123686;27;19919;-56
2022/09/03 04:02:16;;;;;;;;;;;7.30;99.90;;;;;;5125367;27;20340;-56
2022/09/03 04:04:57;;;;;;;;;;;7.30;99.90;;;;;;5123168;27;19919;-56
2022/09/03 04:07:36;;;;;;;;;;;7.30;99.90;;;;;;5124245;27;19916;-57
2022/09/03 04:10:16;;;;;;;;;;;7.30;99.90;;;;;;5103744;27;19916;-56
2022/09/03 04:12:56;;;;;;;;;;;7.30;99.90;;;;;;5118480;27;19920;-56
2022/09/03 04:15:36;;;;;;;;;;;7.30;99.90;;;;;;5104626;27;20233;-56
2022/09/03 04:18:17;;;;;;;;;;;7.30;99.90;;;;;;5124187;27;19911;-56
2022/09/03 04:21:03;;;;;;;;;;;7.20;99.90;;;;;;5124410;27;20307;-56
2022/09/03 04:23:44;;;;;;;;;;;7.20;99.90;;;;;;5125055;27;19912;-56
2022/09/03 04:26:26;;;;;;;;;;;7.20;99.90;;;;;;5104858;27;20292;-57
2022/09/03 04:29:07;;;;;;;;;;;7.30;99.90;;;;;;5124581;27;19916;-56
2022/09/03 04:34:42;;;;;;;;;;;7.70;99.90;;;;;;5070777;28;19934;-56
2022/09/03 04:37:22;;;;;;;;;;;7.80;99.90;;;;;;5123528;27;20407;-56
2022/09/03 04:40:02;;;;;;;;;;;8.00;99.90;;;;;;5124082;27;19911;-56
2022/09/03 04:42:41;;;;;;;;;;;8.10;99.90;;;;;;5121017;27;19920;-56
2022/09/03 04:45:21;;;;;;;;;;;8.00;99.90;;;;;;5089718;27;19916;-56
2022/09/03 04:48:02;;;;;;;;;;;7.90;99.90;;;;;;5124331;27;19916;-56
2022/09/03 04:50:43;;;;;;;;;;;7.90;99.90;;;;;;5104212;27;19912;-56
2022/09/03 04:53:22;;;;;;;;;;;7.90;99.90;;;;;;5105362;27;19958;-57
2022/09/03 04:56:03;;;;;;;;;;;8.00;99.90;;;;;;5105066;27;20323;-56
2022/09/03 04:58:44;;;;;;;;;;;8.20;99.90;;;;;;5085225;27;19912;-56
2022/09/03 05:01:24;;;;;;;;;;;8.40;99.90;;;;;;5125337;27;19926;-57
2022/09/03 05:04:05;;;;;;;;;;;8.60;99.90;;;;;;5125385;27;20293;-56
2022/09/03 05:06:45;;;;;;;;;;;8.70;99.90;;;;;;5144463;27;19933;-56
2022/09/03 05:09:24;;;;;;;;;;;8.70;99.90;;;;;;5105480;27;19928;-56
2022/09/03 05:12:05;;;;;;;;;;;8.80;99.90;;;;;;5093643;27;19920;-56
2022/09/03 05:14:44;;;;;;;;;;;8.90;99.90;;;;;;5102164;27;20316;-56
2022/09/03 05:17:24;;;;;;;;;;;9.20;99.90;;;;;;5103378;27;19926;-56
2022/09/03 05:20:04;;;;;;;;;;;9.40;99.90;;;;;;5123537;27;19911;-56
2022/09/03 05:22:44;;;;;;;;;;;9.60;99.90;;;;;;5123841;27;19916;-57
2022/09/03 05:25:24;;;;;;;;;;;9.80;99.90;;;;;;5124156;27;19922;-57
2022/09/03 05:28:06;;;;;;;;;;;9.90;99.90;;;;;;5083685;28;19913;-56
2022/09/03 05:30:46;;;;;;;;;;;10.10;99.90;;;;;;5123811;27;19911;-56
2022/09/03 05:33:26;;;;;;;;;;;10.40;99.90;;;;;;5123956;27;19916;-56
2022/09/03 05:36:07;;;;;;;;;;;10.60;99.90;;;;;;5115689;27;20401;-56
2022/09/03 05:38:47;;;;;;;;;;;10.90;99.90;;;;;;5103053;27;19920;-56
2022/09/03 05:41:28;;;;;;;;;;;11.00;99.90;;;;;;5103960;27;19946;-56
2022/09/03 05:44:09;;;;;;;;;;;11.20;99.90;;;;;;5124474;27;19916;-56
2022/09/03 05:46:49;;;;;;;;;;;11.40;99.90;;;;;;5083479;28;19913;-56
2022/09/03 05:49:30;;;;;;;;;;;11.60;99.90;;;;;;5123164;27;20388;-56
2022/09/03 05:52:11;;;;;;;;;;;11.70;99.90;;;;;;5123305;27;19912;-56
2022/09/03 05:54:51;;;;;;;;;;;11.90;99.90;;;;;;5145002;27;19912;-56
2022/09/03 05:57:32;;;;;;;;;;;12.00;99.90;;;;;;5123792;27;19926;-56
2022/09/03 06:00:13;;;;;;;;;;;12.10;99.90;;;;;;5123953;27;19916;-56
2022/09/03 06:02:53;;;;;;;;;;;12.30;99.90;;;;;;5103141;27;19920;-56
2022/09/03 06:05:32;;;;;;;;;;;12.40;99.90;;;;;;5119605;27;19912;-56
2022/09/03 06:08:12;;;;;;;;;;;12.50;99.90;;;;;;5123941;27;19912;-56
2022/09/03 06:10:57;;;;;;;;;;;12.60;99.90;;;;;;5122319;27;20360;-56
2022/09/03 06:13:37;;;;;;;;;;;12.80;99.90;;;;;;5082684;28;19912;-56
2022/09/03 06:16:16;;;;;;;;;;;12.80;99.90;;;;;;5114508;27;19920;-56
2022/09/03 06:18:56;;;;;;;;;;;12.90;99.90;;;;;;5103096;27;20430;-56
2022/09/03 06:21:36;;;;;;;;;;;13.10;99.90;;;;;;5123482;27;19915;-56
2022/09/03 06:24:16;;;;;;;;;;;13.30;99.90;;;;;;5124118;27;19918;-56
2022/09/03 06:26:57;;;;;;;;;;;13.50;99.90;;;;;;5124263;27;19912;-56
2022/09/03 06:29:38;;;;;;;;;;;13.60;99.90;;;;;;5102763;27;19926;-56
2022/09/03 06:32:18;;;;;;;;;;;13.60;99.90;;;;;;5124434;27;19911;-56
2022/09/03 06:34:58;;;;;;;;;;;13.60;99.90;;;;;;5124016;27;20131;-56
2022/09/03 06:37:40;;;;;;;;;;;13.50;99.90;;;;;;5124036;27;20237;-56
2022/09/03 06:40:25;;;;;;;;;;;13.60;99.90;;;;;;5083104;28;20278;-56
2022/09/03 06:43:04;;;;;;;;;;;13.60;99.90;;;;;;5104401;27;19919;-56
2022/09/03 06:45:52;;;;;;;;;;;13.60;99.90;;;;;;5123703;27;19969;-56
2022/09/03 06:48:33;;;;;;;;;;;13.60;99.90;;;;;;5123721;27;19915;-56
2022/09/03 06:51:14;;;;;;;;;;;13.50;99.90;;;;;;5103926;27;19912;-56
2022/09/03 06:53:56;;;;;;;;;;;13.30;99.90;;;;;;5100531;27;19916;-56
2022/09/03 06:56:37;;;;;;;;;;;13.20;99.90;;;;;;5122762;27;19915;-56
2022/09/03 06:59:17;;;;;;;;;;;13.20;99.90;;;;;;5102738;27;19926;-56
2022/09/03 07:01:59;;;;;;;;;;;13.40;99.90;;;;;;5123931;27;19934;-56
2022/09/03 07:04:39;;;;;;;;;;;13.70;99.90;;;;;;5123549;27;19938;-56
2022/09/03 07:07:19;;;;;;;;;;;14.00;99.90;;;;;;5123839;27;20312;-56
2022/09/03 07:09:58;;;;;;;;;;;14.10;99.90;;;;;;5103071;27;19926;-56
2022/09/03 07:12:38;;;;;;;;;;;14.20;99.90;;;;;;5117207;27;19916;-56
2022/09/03 07:15:19;;;;;;;;;;;14.40;99.90;;;;;;5121283;27;19949;-56
2022/09/03 07:18:00;;;;;;;;;;;14.60;99.90;;;;;;5123681;27;19926;-56
2022/09/03 07:20:39;;;;;;;;;;;14.70;99.90;;;;;;5121992;27;19912;-56
2022/09/03 07:23:19;;;;;;;;;;;14.80;99.90;;;;;;5124446;27;19916;-56
2022/09/03 07:26:00;;;;;;;;;;;14.90;99.90;;;;;;5103384;27;20407;-56
2022/09/03 07:28:41;;;;;;;;;;;15.00;99.90;;;;;;5144741;27;19911;-56
2022/09/03 07:31:24;;;;;;;;;;;15.10;99.90;;;;;;5103881;27;20282;-57
2022/09/03 07:34:06;;;;;;;;;;;15.20;99.90;;;;;;5124413;27;19911;-56
2022/09/03 07:36:49;;;;;;;;;;;15.20;99.90;;;;;;5122193;27;19915;-56
2022/09/03 07:39:29;;;;;;;;;;;15.10;99.90;;;;;;5120538;27;20320;-56
2022/09/03 07:42:09;;;;;;;;;;;15.10;99.90;;;;;;5124844;27;19918;-56
2022/09/03 07:44:49;;;;;;;;;;;15.20;99.90;;;;;;5124532;27;19916;-56
2022/09/03 07:47:29;;;;;;;;;;;15.20;99.90;;;;;;5124149;27;20273;-56
2022/09/03 07:50:10;;;;;;;;;;;15.30;99.90;;;;;;5102396;27;19973;-56
2022/09/03 07:52:55;;;;;;;;;;;15.40;99.90;;;;;;5100287;27;19965;-56
2022/09/03 07:55:35;;;;;;;;;;;15.50;99.90;;;;;;5117044;27;19912;-56
2022/09/03 07:58:14;;;;;;;;;;;15.60;99.90;;;;;;5102327;27;19930;-56
2022/09/03 08:00:56;;;;;;;;;;;15.60;99.90;;;;;;5123480;27;19912;-56
2022/09/03 08:03:36;;;;;;;;;;;15.80;99.90;;;;;;5103787;27;20409;-56
2022/09/03 08:06:16;;;;;;;;;;;16.10;99.90;;;;;;5121975;27;19915;-55
2022/09/03 08:08:58;;;;;;;;;;;16.30;99.90;;;;;;5122985;27;19911;-55
2022/09/03 08:11:40;;;;;;;;;;;16.60;99.90;;;;;;5123337;27;19918;-57
2022/09/03 08:14:20;;;;;;;;;;;16.80;99.90;;;;;;5105222;27;19916;-56
2022/09/03 08:17:01;;;;;;;;;;;16.80;99.90;;;;;;5105016;27;20181;-56
2022/09/03 08:19:42;;;;;;;;;;;16.80;99.90;;;;;;5125773;27;19922;-55
2022/09/03 08:22:24;;;;;;;;;;;16.80;99.90;;;;;;5126091;27;20180;-56
2022/09/03 08:25:04;;;;;;;;;;;16.90;99.90;;;;;;5098027;27;19965;-56
2022/09/03 08:27:44;;;;;;;;;;;17.10;99.90;;;;;;5122934;27;19912;-56
2022/09/03 08:30:25;;;;;;;;;;;17.20;99.90;;;;;;5122717;27;20285;-55
2022/09/03 08:33:06;;;;;;;;;;;17.40;99.90;;;;;;5123563;27;19911;-57
2022/09/03 08:35:54;;;;;;;;;;;17.60;99.90;;;;;;5119089;27;20400;-56
2022/09/03 08:38:35;;;;;;;;;;;17.70;99.90;;;;;;5122508;27;20380;-56
2022/09/03 08:41:15;;;;;;;;;;;17.80;99.90;;;;;;5144156;27;19911;-55
2022/09/03 08:44:04;;;;;;;;;;;17.70;99.90;;;;;;5098808;27;20423;-55
2022/09/03 08:46:47;;;;;;;;;;;17.70;99.90;;;;;;5109329;27;20328;-55
2022/09/03 08:49:32;;;;;;;;;;;17.80;99.90;;;;;;5103205;27;19916;-56
2022/09/03 08:52:20;;;;;;;;;;;17.90;99.90;;;;;;5097565;27;19953;-56
2022/09/03 08:55:03;;;;;;;;;;;17.90;99.90;;;;;;5085036;27;20090;-56
2022/09/03 08:57:46;;;;;;;;;;;17.80;99.90;;;;;;5124309;27;19916;-56
2022/09/03 09:00:28;;;;;;;;;;;17.90;99.90;;;;;;5082357;28;19920;-55
2022/09/03 09:03:16;;;;;;;;;;;18.00;99.90;;;;;;5124370;27;20284;-56
2022/09/03 09:06:00;;;;;;;;;;;18.20;99.90;;;;;;5101812;27;19926;-56
2022/09/03 09:08:45;;;;;;;;;;;18.70;99.90;;;;;;5124842;27;19915;-56
2022/09/03 09:11:31;;;;;;;;;;;19.30;99.90;;;;;;5124879;27;19912;-56
2022/09/03 09:14:16;;;;;;;;;;;19.90;95.80;;;;;;5100610;27;19958;-56
2022/09/03 09:17:01;;;;;;;;;;;20.50;92.20;;;;;;5115828;27;19923;-56
2022/09/03 09:19:46;;;;;;;;;;;21.10;82.90;;;;;;5120219;27;19920;-56
2022/09/03 09:22:29;;;;;;;;;;;21.60;71.10;;;;;;5139181;27;20326;-56
2022/09/03 09:25:13;;;;;;;;;;;21.70;66.40;;;;;;5118173;27;19919;-56
2022/09/03 09:27:56;;;;;;;;;;;21.70;61.80;;;;;;5099496;27;19920;-56
2022/09/03 09:30:36;;;;;;;;;;;21.50;60.20;;;;;;5066870;28;20290;-56
2022/09/03 09:33:19;;;;;;;;;;;21.00;63.10;;;;;;5114066;27;20343;-56
2022/09/03 09:36:01;;;;;;;;;;;20.50;66.00;;;;;;5100127;27;19939;-56
2022/09/03 09:38:44;;;;;;;;;;;20.00;68.10;;;;;;5118186;27;19920;-57
2022/09/03 09:41:25;;;;;;;;;;;19.50;74.50;;;;;;5116443;27;19912;-56
2022/09/03 09:44:05;;;;;;;;;;;19.40;94.30;;;;;;5104180;27;20377;-56
2022/09/03 09:46:45;;;;;;;;;;;19.40;91.30;;;;;;5111399;27;20384;-56
2022/09/03 09:49:30;;;;;;;;;;;19.40;89.80;;;;;;5121089;27;19915;-56
2022/09/03 09:52:12;;;;;;;;;;;19.40;85.80;;;;;;5124501;27;20319;-56
2022/09/03 09:54:54;;;;;;;;;;;19.30;87.90;;;;;;5099827;27;19920;-56
2022/09/03 09:57:34;;;;;;;;;;;19.50;94.20;;;;;;5115299;27;19938;-57
2022/09/03 10:00:15;;;;;;;;;;;19.60;93.70;;;;;;5091298;27;19934;-57
2022/09/03 10:02:55;;;;;;;;;;;19.80;92.00;;;;;;5123423;27;19916;-56
2022/09/03 10:05:36;;;;;;;;;;;20.10;96.10;;;;;;5083773;27;19926;-56
2022/09/03 10:08:20;;;;;;;;;;;20.30;83.20;;;;;;5116817;27;19912;-55
2022/09/03 10:11:00;;;;;;;;;;;20.40;80.50;;;;;;5113711;27;19920;-55
2022/09/03 10:13:42;;;;;;;;;;;20.50;83.90;;;;;;5110667;27;20312;-56
2022/09/03 10:16:26;;;;;;;;;;;20.80;87.60;;;;;;5121554;27;19916;-56
2022/09/03 10:19:10;;;;;;;;;;;21.20;74.80;;;;;;5117506;27;19920;-57
2022/09/03 10:21:53;;;;;;;;;;;21.40;76.20;;;;;;5118885;27;19920;-56
2022/09/03 10:24:47;;;;;;;;;;;21.60;71.60;;;;;;5120276;27;20385;-56
2022/09/03 10:27:27;;;;;;;;;;;21.90;70.20;;;;;;5147342;27;20230;-56
2022/09/03 10:30:09;;;;;;;;;;;22.00;62.30;;;;;;5122029;27;19916;-56
2022/09/03 10:32:58;;;;;;;;;;;22.20;64.10;;;;;;5100718;27;19927;-56
2022/09/03 10:35:41;;;;;;;;;;;22.30;61.20;;;;;;5111762;27;19920;-57
2022/09/03 10:38:27;;;;;;;;;;;22.30;57.20;;;;;;5101512;27;19926;-56
2022/09/03 10:41:12;;;;;;;;;;;22.00;55.80;;;;;;5124094;27;20384;-56
2022/09/03 10:44:02;;;;;;;;;;;21.70;56.20;;;;;;5132282;27;19916;-56
2022/09/03 10:46:46;;;;;;;;;;;21.70;54.40;;;;;;5090091;27;20143;-56
2022/09/03 10:49:33;;;;;;;;;;;21.70;55.80;;;;;;5119879;27;19915;-56
2022/09/03 10:52:17;;;;;;;;;;;21.70;57.30;;;;;;5119852;27;19919;-56
2022/09/03 10:55:08;;;;;;;;;;;21.80;55.50;;;;;;5119931;27;19915;-57
2022/09/03 10:57:54;;;;;;;;;;;21.70;54.90;;;;;;5119117;27;20320;-56
2022/09/03 11:00:39;;;;;;;;;;;21.70;55.80;;;;;;5104124;27;19918;-56
2022/09/03 11:03:41;;;;;;;;;;;21.90;55.50;;;;;;5151618;27;19925;-56
2022/09/03 11:06:24;;;;;;;;;;;22.10;51.90;;;;;;5123440;27;19919;-56
2022/09/03 11:09:11;;;;;;;;;;;22.00;52.30;;;;;;5124367;27;20184;-57
2022/09/03 11:11:54;;;;;;;;;;;21.90;52.40;;;;;;5129370;27;19919;-56
2022/09/03 11:14:38;;;;;;;;;;;21.80;52.80;;;;;;5104156;27;20369;-56
2022/09/03 11:17:21;;;;;;;;;;;21.90;53.90;;;;;;5104327;27;19977;-56
2022/09/03 11:20:08;;;;;;;;;;;21.90;54.50;;;;;;5116380;27;19926;-55
2022/09/03 11:22:49;;;;;;;;;;;22.00;53.00;;;;;;5121053;27;19923;-57
2022/09/03 11:25:31;;;;;;;;;;;22.30;53.30;;;;;;5097610;27;20347;-55
2022/09/03 11:28:19;;;;;;;;;;;22.60;51.40;;;;;;5123250;27;19923;-56
2022/09/03 11:31:12;;;;;;;;;;;22.70;48.80;;;;;;5103885;27;19927;-56
2022/09/03 11:33:54;;;;;;;;;;;22.80;51.00;;;;;;5121657;27;19916;-56
2022/09/03 11:36:36;;;;;;;;;;;23.10;50.40;;;;;;5111923;27;19918;-56
2022/09/03 11:39:20;;;;;;;;;;;23.30;48.40;;;;;;5153664;27;20524;-56
2022/09/03 11:42:05;;;;;;;;;;;23.50;47.30;;;;;;5125688;27;19911;-57
2022/09/03 11:44:46;;;;;;;;;;;23.50;44.90;;;;;;5125285;27;19912;-56
2022/09/03 11:47:38;;;;;;;;;;;23.50;46.50;;;;;;5123312;27;19926;-57
2022/09/03 11:50:19;;;;;;;;;;;23.70;46.30;;;;;;5104512;27;20324;-56
2022/09/03 11:53:09;;;;;;;;;;;23.90;45.00;;;;;;5118834;27;19920;-56
2022/09/03 11:55:53;;;;;;;;;;;24.10;45.40;;;;;;5102547;27;19958;-57
2022/09/03 11:58:34;;;;;;;;;;;23.90;45.40;;;;;;5124194;27;19912;-56
2022/09/03 12:01:16;;;;;;;;;;;23.90;48.30;;;;;;5125785;27;20181;-55
2022/09/03 12:04:02;;;;;;;;;;;23.80;45.00;;;;;;5119736;27;20331;-56
2022/09/03 12:07:02;;;;;;;;;;;23.70;44.80;;;;;;5104543;27;20025;-56
2022/09/03 12:09:47;;;;;;;;;;;23.70;45.30;;;;;;5164075;27;20329;-56
2022/09/03 12:12:38;;;;;;;;;;;23.90;48.20;;;;;;5102196;27;19958;-57
2022/09/03 12:15:29;;;;;;;;;;;24.20;46.70;;;;;;5123113;27;19916;-56
2022/09/03 12:18:20;;;;;;;;;;;24.60;47.20;;;;;;5124407;27;19916;-56
2022/09/03 12:21:04;;;;;;;;;;;24.90;43.90;;;;;;5124882;27;20320;-56
2022/09/03 12:23:47;;;;;;;;;;;25.00;42.20;;;;;;5125826;27;19926;-56
2022/09/03 12:26:28;;;;;;;;;;;25.20;42.20;;;;;;5105211;27;19926;-56
2022/09/03 12:29:19;;;;;;;;;;;25.40;44.70;;;;;;5124540;27;19915;-57
2022/09/03 12:32:07;;;;;;;;;;;25.40;42.90;;;;;;5125598;27;19922;-56
2022/09/03 12:34:47;;;;;;;;;;;25.30;42.20;;;;;;5084398;28;19912;-56
2022/09/03 12:37:27;;;;;;;;;;;25.00;44.10;;;;;;5125049;27;19919;-57
2022/09/03 12:40:16;;;;;;;;;;;24.80;45.70;;;;;;5124901;27;19922;-57
2022/09/03 12:43:11;;;;;;;;;;;24.50;44.80;;;;;;5125607;27;20693;-57
2022/09/03 12:45:53;;;;;;;;;;;24.00;44.60;;;;;;5118599;27;20385;-56
2022/09/03 12:48:33;;;;;;;;;;;23.60;46.20;;;;;;5084146;28;19917;-56
2022/09/03 12:51:13;;;;;;;;;;;23.50;46.30;;;;;;5104856;27;19969;-55
2022/09/03 12:53:53;;;;;;;;;;;23.30;48.10;;;;;;5079694;28;20374;-56
2022/09/03 12:56:34;;;;;;;;;;;23.30;46.90;;;;;;5072142;27;20365;-56
2022/09/03 12:59:16;;;;;;;;;;;23.20;47.10;;;;;;5099545;27;19916;-55
2022/09/03 13:02:00;;;;;;;;;;;23.30;47.80;;;;;;5147713;27;19934;-56
2022/09/03 13:04:41;;;;;;;;;;;23.60;47.70;;;;;;5118407;27;19916;-56
2022/09/03 13:07:24;;;;;;;;;;;23.90;47.70;;;;;;5101003;27;19916;-56
2022/09/03 13:10:07;;;;;;;;;;;24.10;47.00;;;;;;5123814;27;19912;-56
2022/09/03 13:12:48;;;;;;;;;;;24.30;46.60;;;;;;5124372;27;20336;-56
2022/09/03 13:15:28;;;;;;;;;;;24.40;45.70;;;;;;5125555;27;19916;-55
2022/09/03 13:18:21;;;;;;;;;;;24.40;46.40;;;;;;5104800;27;19926;-56
2022/09/03 13:21:07;;;;;;;;;;;24.60;46.10;;;;;;5125178;27;19912;-55
2022/09/03 13:23:55;;;;;;;;;;;24.90;45.50;;;;;;5125711;27;19918;-56
2022/09/03 13:26:43;;;;;;;;;;;24.80;46.10;;;;;;5125330;27;19926;-57
2022/09/03 13:29:31;;;;;;;;;;;24.90;44.20;;;;;;5125380;27;19912;-57
2022/09/03 13:32:17;;;;;;;;;;;25.00;45.50;;;;;;5126103;27;19912;-56
2022/09/03 13:35:01;;;;;;;;;;;25.30;45.70;;;;;;5125494;27;19912;-57
2022/09/03 13:37:43;;;;;;;;;;;25.60;44.10;;;;;;5084718;28;20251;-56
2022/09/03 13:40:28;;;;;;;;;;;25.70;42.80;;;;;;5124611;27;19915;-57
2022/09/03 13:43:16;;;;;;;;;;;25.90;43.20;;;;;;5105083;27;19912;-56
2022/09/03 13:45:57;;;;;;;;;;;26.30;43.40;;;;;;5119103;27;19918;-56
2022/09/03 13:51:43;;;;;;;;;;;26.80;42.30;;;;;;5104923;27;20325;-56
2022/09/03 13:54:24;;;;;;;;;;;26.80;41.40;;;;;;5125559;27;19912;-56
2022/09/03 13:57:05;;;;;;;;;;;26.90;40.30;;;;;;5125025;27;19912;-55
2022/09/03 13:59:49;;;;;;;;;;;27.00;40.50;;;;;;5124340;27;19920;-56
2022/09/03 14:02:33;;;;;;;;;;;27.00;40.70;;;;;;5104734;27;19912;-56
2022/09/03 14:05:16;;;;;;;;;;;26.80;44.80;;;;;;5125126;27;20320;-56
2022/09/03 14:08:06;;;;;;;;;;;26.60;41.50;;;;;;5125055;22;19929;-55
2022/09/03 14:10:52;;;;;;;;;;;26.20;41.70;;;;;;5124843;27;19991;-54
2022/09/03 14:13:38;;;;;;;;;;;25.90;42.10;;;;;;5104880;27;20419;-55
2022/09/03 14:16:24;;;;;;;;;;;25.70;42.90;;;;;;5104709;27;19928;-55
2022/09/03 14:19:06;;;;;;;;;;;25.40;43.10;;;;;;5124516;27;20250;-54
2022/09/03 14:21:50;;;;;;;;;;;25.20;44.30;;;;;;5125514;27;20331;-54
2022/09/03 14:24:34;;;;;;;;;;;24.90;44.80;;;;;;5125556;27;20417;-55
2022/09/03 14:27:22;;;;;;;;;;;24.80;47.00;;;;;;5104441;27;19916;-55
2022/09/03 14:30:05;;;;;;;;;;;24.60;47.00;;;;;;5104362;27;19930;-54
2022/09/03 14:32:50;;;;;;;;;;;24.60;46.10;;;;;;5105254;27;19934;-55
2022/09/03 14:35:38;;;;;;;;;;;24.70;46.80;;;;;;5125617;27;19916;-55
2022/09/03 14:38:38;;;;;;;;;;;24.80;47.70;;;;;;5104924;27;19912;-55
2022/09/03 14:41:22;;;;;;;;;;;24.70;47.40;;;;;;5125811;27;19912;-54
2022/09/03 14:44:18;;;;;;;;;;;24.50;47.60;;;;;;5104981;27;19912;-54
2022/09/03 14:47:01;;;;;;;;;;;24.30;48.00;;;;;;5096324;27;19927;-54
2022/09/03 14:49:57;;;;;;;;;;;23.90;47.80;;;;;;5124405;27;19912;-54
2022/09/03 14:52:50;;;;;;;;;;;23.80;49.10;;;;;;5125607;27;19916;-54
2022/09/03 14:55:36;;;;;;;;;;;23.60;49.30;;;;;;5125213;27;19911;-54
2022/09/03 14:58:23;;;;;;;;;;;23.40;50.80;;;;;;5124757;27;19912;-54
2022/09/03 15:01:05;;;;;;;;;;;23.20;51.00;;;;;;5124587;27;19911;-55
2022/09/03 15:03:53;;;;;;;;;;;23.10;51.50;;;;;;5125146;27;19919;-55
2022/09/03 15:06:41;;;;;;;;;;;23.10;51.90;;;;;;5078588;28;20321;-55
2022/09/03 15:09:26;;;;;;;;;;;23.20;52.60;;;;;;5125129;27;19915;-55
2022/09/03 15:12:10;;;;;;;;;;;23.30;53.20;;;;;;5105038;27;19965;-54
2022/09/03 15:14:53;;;;;;;;;;;23.40;52.10;;;;;;5125188;27;19916;-54
2022/09/03 15:17:55;;;;;;;;;;;23.50;52.20;;;;;;5109402;27;19920;-55
2022/09/03 15:20:44;;;;;;;;;;;23.50;52.00;;;;;;5125126;27;19916;-54
2022/09/03 15:23:43;;;;;;;;;;;23.50;52.40;;;;;;5125510;27;19912;-55
2022/09/03 15:26:36;;;;;;;;;;;23.50;52.60;;;;;;5121339;27;19946;-54
2022/09/03 15:29:29;;;;;;;;;;;23.60;53.10;;;;;;5124392;27;19931;-54
2022/09/03 15:32:17;;;;;;;;;;;23.50;52.40;;;;;;5125467;27;19916;-55
2022/09/03 15:35:02;;;;;;;;;;;23.40;53.50;;;;;;5125258;27;19916;-54
2022/09/03 15:37:45;;;;;;;;;;;23.40;53.50;;;;;;5109624;27;19918;-55
2022/09/03 15:40:28;;;;;;;;;;;23.20;53.30;;;;;;5124697;27;19918;-55
2022/09/03 15:43:13;;;;;;;;;;;23.00;54.20;;;;;;5125139;27;19912;-54
2022/09/03 15:45:57;;;;;;;;;;;22.90;54.20;;;;;;5125292;27;19912;-55
2022/09/03 15:48:45;;;;;;;;;;;22.70;54.80;;;;;;5125049;27;19916;-54
2022/09/03 15:51:26;;;;;;;;;;;22.60;55.70;;;;;;5125646;27;19912;-55
2022/09/03 15:54:12;;;;;;;;;;;22.50;56.20;;;;;;5084686;28;20181;-55
2022/09/03 15:56:55;;;;;;;;;;;22.30;56.90;;;;;;5104797;27;19962;-54
2022/09/03 15:59:39;;;;;;;;;;;22.10;58.70;;;;;;5124585;27;19915;-55